createdAt,value
2023-04-26T00:00:12.028Z,10.18
2023-04-26T00:02:41.597Z,10.18
2023-04-26T00:05:11.209Z,10.15
2023-04-26T00:07:40.751Z,10.16
2023-04-26T00:10:12.430Z,10.11
2023-04-26T00:12:42.819Z,10.16
2023-04-26T00:15:12.196Z,10.12
2023-04-26T00:17:41.371Z,10.13
2023-04-26T00:20:12.208Z,10.13
2023-04-26T00:22:41.190Z,10.10
2023-04-26T00:25:12.972Z,10.09
2023-04-26T00:27:41.836Z,10.09
2023-04-26T00:30:11.593Z,10.05
2023-04-26T00:32:40.699Z,10.01
2023-04-26T00:35:10.590Z,9.98
2023-04-26T00:37:38.983Z,9.93
2023-04-26T00:40:09.193Z,9.88
2023-04-26T00:42:40.151Z,9.88
2023-04-26T00:45:10.319Z,9.84
2023-04-26T00:47:39.520Z,9.80
2023-04-26T00:50:10.897Z,9.81
2023-04-26T00:52:40.843Z,9.75
2023-04-26T00:55:11.009Z,9.71
2023-04-26T00:57:41.651Z,9.61
2023-04-26T01:00:11.864Z,9.52
2023-04-26T01:02:41.928Z,9.48
2023-04-26T01:05:11.252Z,9.43
2023-04-26T01:07:40.266Z,9.43
2023-04-26T01:10:10.650Z,9.39
2023-04-26T01:12:41.697Z,9.36
2023-04-26T01:15:12.168Z,9.29
2023-04-26T01:17:41.023Z,9.25
2023-04-26T01:20:12.506Z,9.20
2023-04-26T01:22:42.885Z,9.15
2023-04-26T01:25:14.690Z,9.16
2023-04-26T01:27:43.562Z,9.14
2023-04-26T01:30:12.822Z,9.13
2023-04-26T01:32:41.891Z,9.11
2023-04-26T01:35:10.902Z,9.09
2023-04-26T01:37:39.825Z,9.02
2023-04-26T01:40:11.907Z,8.96
2023-04-26T01:42:41.670Z,8.99
2023-04-26T01:45:11.098Z,9.00
2023-04-26T01:47:51.138Z,9.03
2023-04-26T01:50:20.257Z,9.05
2023-04-26T01:52:48.980Z,9.01
2023-04-26T01:55:19.463Z,8.93
2023-04-26T01:57:48.261Z,8.94
2023-04-26T02:00:17.425Z,8.96
2023-04-26T02:02:46.185Z,8.89
2023-04-26T02:05:15.060Z,8.85
2023-04-26T02:07:43.890Z,8.79
2023-04-26T02:10:12.763Z,8.72
2023-04-26T02:12:43.099Z,8.74
2023-04-26T02:15:12.955Z,8.71
2023-04-26T02:17:42.671Z,8.69
2023-04-26T02:20:12.661Z,8.61
2023-04-26T02:22:41.411Z,8.60
2023-04-26T02:25:11.824Z,8.57
2023-04-26T02:27:41.326Z,8.49
2023-04-26T02:30:12.222Z,8.48
2023-04-26T02:32:42.929Z,8.45
2023-04-26T02:35:12.115Z,8.42
2023-04-26T02:37:40.925Z,8.30
2023-04-26T02:40:13.744Z,8.16
2023-04-26T02:42:42.936Z,8.02
2023-04-26T02:45:13.346Z,7.88
2023-04-26T02:47:42.292Z,7.72
2023-04-26T02:50:11.838Z,7.68
2023-04-26T02:52:40.882Z,7.69
2023-04-26T02:55:10.380Z,7.50
2023-04-26T02:57:38.950Z,7.36
2023-04-26T03:00:11.820Z,7.35
2023-04-26T03:02:42.537Z,7.38
2023-04-26T03:05:11.549Z,7.32
2023-04-26T03:07:40.327Z,7.39
2023-04-26T03:10:10.116Z,7.40
2023-04-26T03:12:41.013Z,7.41
2023-04-26T03:15:10.394Z,7.44
2023-04-26T03:17:43.516Z,7.52
2023-04-26T03:20:14.359Z,7.60
2023-04-26T03:22:43.458Z,7.67
2023-04-26T03:25:13.541Z,7.71
2023-04-26T03:27:42.348Z,7.76
2023-04-26T03:30:11.968Z,7.77
2023-04-26T03:32:43.647Z,7.72
2023-04-26T03:35:12.474Z,7.77
2023-04-26T03:37:41.314Z,7.82
2023-04-26T03:40:14.437Z,7.81
2023-04-26T03:42:43.272Z,7.76
2023-04-26T03:45:12.610Z,7.76
2023-04-26T03:47:41.585Z,7.69
2023-04-26T03:50:12.776Z,7.67
2023-04-26T03:52:41.878Z,7.61
2023-04-26T03:55:12.041Z,7.61
2023-04-26T03:57:41.620Z,7.66
2023-04-26T04:00:12.494Z,7.68
2023-04-26T04:02:45.099Z,7.71
2023-04-26T04:05:24.452Z,7.80
2023-04-26T04:07:53.860Z,7.84
2023-04-26T04:10:23.945Z,7.87
2023-04-26T04:12:53.461Z,7.87
2023-04-26T04:15:22.961Z,7.89
2023-04-26T04:17:52.328Z,7.93
2023-04-26T04:20:21.675Z,8.07
2023-04-26T04:22:53.043Z,8.13
2023-04-26T04:25:22.791Z,8.18
2023-04-26T04:27:52.128Z,8.20
2023-04-26T04:30:21.892Z,8.24
2023-04-26T04:32:50.728Z,8.23
2023-04-26T04:35:19.872Z,8.28
2023-04-26T04:37:51.800Z,8.33
2023-04-26T04:40:21.139Z,8.40
2023-04-26T04:42:51.357Z,8.53
2023-04-26T04:45:22.880Z,8.58
2023-04-26T04:47:54.517Z,8.61
2023-04-26T04:50:23.861Z,8.64
2023-04-26T04:52:54.091Z,8.69
2023-04-26T04:55:24.146Z,8.86
2023-04-26T04:57:53.905Z,8.84
2023-04-26T05:00:23.360Z,8.94
2023-04-26T05:02:58.623Z,9.04
2023-04-26T05:05:29.519Z,9.07
2023-04-26T05:08:00.196Z,9.22
2023-04-26T05:10:28.995Z,9.31
2023-04-26T05:12:58.132Z,9.39
2023-04-26T05:15:28.071Z,9.44
2023-04-26T05:17:57.915Z,9.58
2023-04-26T05:20:27.572Z,9.64
2023-04-26T05:22:57.610Z,9.81
2023-04-26T05:25:27.909Z,9.84
2023-04-26T05:28:06.874Z,10.06
2023-04-26T05:30:41.245Z,10.08
2023-04-26T05:33:23.082Z,10.03
2023-04-26T05:36:10.416Z,10.11
2023-04-26T05:38:39.684Z,10.19
2023-04-26T05:41:09.963Z,10.31
2023-04-26T05:43:39.203Z,10.49
2023-04-26T05:46:08.366Z,10.54
2023-04-26T05:48:37.445Z,10.64
2023-04-26T05:51:06.754Z,10.81
2023-04-26T05:53:36.737Z,11.00
2023-04-26T05:56:07.283Z,11.13
2023-04-26T05:58:40.162Z,11.16
2023-04-26T06:01:08.970Z,11.17
2023-04-26T06:03:38.536Z,11.17
2023-04-26T06:06:08.179Z,11.26
2023-04-26T06:08:39.981Z,11.42
2023-04-26T06:11:08.894Z,11.48
2023-04-26T06:13:37.632Z,11.68
2023-04-26T06:16:10.246Z,11.71
2023-04-26T06:18:39.128Z,11.61
2023-04-26T06:21:08.969Z,11.52
2023-04-26T06:23:38.801Z,11.53
2023-04-26T06:26:07.534Z,11.73
2023-04-26T06:28:36.262Z,11.78
2023-04-26T06:31:05.233Z,11.76
2023-04-26T06:33:35.402Z,11.69
2023-04-26T06:36:04.149Z,11.73
2023-04-26T06:38:32.900Z,11.73
2023-04-26T06:41:01.783Z,11.77
2023-04-26T06:43:30.614Z,11.75
2023-04-26T06:46:03.808Z,12.03
2023-04-26T06:48:32.647Z,11.95
2023-04-26T06:51:07.667Z,11.87
2023-04-26T06:53:37.604Z,12.01
2023-04-26T06:56:06.793Z,12.12
2023-04-26T06:58:35.452Z,12.06
2023-04-26T07:01:04.218Z,12.21
2023-04-26T07:03:33.426Z,12.35
2023-04-26T07:06:04.721Z,12.37
2023-04-26T07:08:33.560Z,12.54
2023-04-26T07:11:02.364Z,12.65
2023-04-26T07:13:31.755Z,12.75
2023-04-26T07:16:00.432Z,12.47
2023-04-26T07:18:29.203Z,12.35
2023-04-26T07:20:57.830Z,12.19
2023-04-26T07:23:27.905Z,12.26
2023-04-26T07:25:57.866Z,12.38
2023-04-26T07:28:26.839Z,12.25
2023-04-26T07:30:55.464Z,12.18
2023-04-26T07:33:24.269Z,12.40
2023-04-26T07:35:57.154Z,12.60
2023-04-26T07:38:27.478Z,12.73
2023-04-26T07:40:57.203Z,12.77
2023-04-26T07:43:25.537Z,12.78
2023-04-26T07:45:54.482Z,12.69
2023-04-26T07:48:23.377Z,12.77
2023-04-26T07:50:52.305Z,12.59
2023-04-26T07:53:21.282Z,12.72
2023-04-26T07:55:52.234Z,12.84
2023-04-26T07:58:21.892Z,13.18
2023-04-26T08:00:51.006Z,13.20
2023-04-26T08:03:19.910Z,13.25
2023-04-26T08:05:49.006Z,13.15
2023-04-26T08:08:19.114Z,13.31
2023-04-26T08:10:47.998Z,13.63
2023-04-26T08:13:18.112Z,14.03
2023-04-26T08:15:46.928Z,14.33
2023-04-26T08:18:15.558Z,14.53
2023-04-26T08:20:44.889Z,14.45
2023-04-26T08:23:14.615Z,13.99
2023-04-26T08:25:44.803Z,13.75
2023-04-26T08:28:14.921Z,13.75
2023-04-26T08:30:45.067Z,14.11
2023-04-26T08:33:13.843Z,14.34
2023-04-26T08:35:42.955Z,14.20
2023-04-26T08:38:11.675Z,14.11
2023-04-26T08:40:42.608Z,14.22
2023-04-26T08:43:13.113Z,14.52
2023-04-26T08:45:42.840Z,14.88
2023-04-26T08:48:16.374Z,15.15
2023-04-26T08:50:46.905Z,15.07
2023-04-26T08:53:18.045Z,15.07
2023-04-26T08:55:49.966Z,14.80
2023-04-26T08:58:19.380Z,14.53
2023-04-26T09:00:48.682Z,14.13
2023-04-26T09:03:19.179Z,13.70
2023-04-26T09:05:48.356Z,13.56
2023-04-26T09:08:18.569Z,13.30
2023-04-26T09:10:47.694Z,13.26
2023-04-26T09:13:16.506Z,13.44
2023-04-26T09:15:45.440Z,13.75
2023-04-26T09:18:23.417Z,13.70
2023-04-26T09:21:05.909Z,13.54
2023-04-26T09:23:35.443Z,13.56
2023-04-26T09:26:18.456Z,13.57
2023-04-26T09:28:48.129Z,13.90
2023-04-26T09:31:40.380Z,13.84
2023-04-26T09:34:11.440Z,13.71
2023-04-26T09:36:52.347Z,13.59
2023-04-26T09:39:35.839Z,13.41
2023-04-26T09:42:05.513Z,13.25
2023-04-26T09:44:34.113Z,13.13
2023-04-26T09:47:05.503Z,13.07
2023-04-26T09:49:46.969Z,12.98
2023-04-26T09:52:16.398Z,12.99
2023-04-26T09:54:48.030Z,13.02
2023-04-26T09:57:18.649Z,13.25
2023-04-26T09:59:49.150Z,13.41
2023-04-26T10:02:22.212Z,13.43
2023-04-26T10:04:54.669Z,13.41
2023-04-26T10:07:24.809Z,13.41
2023-04-26T10:09:55.862Z,13.30
2023-04-26T10:12:25.079Z,13.31
2023-04-26T10:14:53.885Z,13.06
2023-04-26T10:17:23.119Z,13.03
2023-04-26T10:19:57.815Z,12.92
2023-04-26T10:22:30.107Z,12.84
2023-04-26T10:24:59.054Z,12.78
2023-04-26T10:27:49.659Z,12.82
2023-04-26T10:30:19.241Z,12.79
2023-04-26T10:32:58.657Z,12.93
2023-04-26T10:35:31.063Z,12.99
2023-04-26T10:38:16.440Z,13.37
2023-04-26T10:40:46.562Z,13.55
2023-04-26T10:43:29.284Z,13.61
2023-04-26T10:45:58.245Z,13.60
2023-04-26T10:48:32.596Z,13.62
2023-04-26T10:51:13.898Z,13.51
2023-04-26T10:54:00.898Z,13.42
2023-04-26T10:56:50.338Z,13.30
2023-04-26T10:59:39.837Z,13.30
2023-04-26T11:02:12.804Z,13.44
2023-04-26T11:04:52.607Z,13.63
2023-04-26T11:07:37.810Z,13.61
2023-04-26T11:10:10.855Z,13.69
2023-04-26T11:12:43.680Z,13.67
2023-04-26T11:15:14.481Z,13.70
2023-04-26T11:17:43.465Z,14.24
2023-04-26T11:20:17.809Z,14.67
2023-04-26T11:22:47.993Z,14.57
2023-04-26T11:25:16.730Z,14.42
2023-04-26T11:27:45.459Z,14.37
2023-04-26T11:30:15.006Z,14.52
2023-04-26T11:32:43.802Z,14.58
2023-04-26T11:35:13.518Z,14.82
2023-04-26T11:37:42.424Z,15.22
2023-04-26T11:40:13.906Z,15.72
2023-04-26T11:42:42.835Z,15.93
2023-04-26T11:45:12.584Z,16.00
2023-04-26T11:47:42.500Z,15.86
2023-04-26T11:50:11.663Z,15.65
2023-04-26T11:52:40.941Z,15.47
2023-04-26T11:55:12.881Z,15.50
2023-04-26T11:57:41.781Z,15.96
2023-04-26T12:00:16.143Z,16.36
2023-04-26T12:02:49.126Z,16.87
2023-04-26T12:05:26.736Z,17.01
2023-04-26T12:07:57.369Z,16.89
2023-04-26T12:10:30.273Z,16.10
2023-04-26T12:13:01.371Z,15.42
2023-04-26T12:15:32.422Z,14.87
2023-04-26T12:18:07.427Z,14.51
2023-04-26T12:20:38.246Z,14.45
2023-04-26T12:23:08.097Z,14.50
2023-04-26T12:25:38.824Z,14.66
2023-04-26T12:28:12.728Z,14.81
2023-04-26T12:30:42.178Z,14.84
2023-04-26T12:33:17.123Z,14.82
2023-04-26T12:35:48.137Z,15.05
2023-04-26T12:38:17.065Z,15.47
2023-04-26T12:40:47.795Z,15.37
2023-04-26T12:43:17.190Z,15.13
2023-04-26T12:45:46.279Z,15.05
2023-04-26T12:48:15.874Z,14.91
2023-04-26T12:50:46.046Z,14.70
2023-04-26T12:53:15.688Z,14.48
2023-04-26T12:55:44.237Z,14.29
2023-04-26T12:58:14.639Z,14.23
2023-04-26T13:00:44.770Z,14.03
2023-04-26T13:03:15.220Z,14.06
2023-04-26T13:05:44.429Z,14.30
2023-04-26T13:08:13.348Z,14.28
2023-04-26T13:10:42.447Z,14.13
2023-04-26T13:13:11.276Z,14.07
2023-04-26T13:15:41.488Z,14.11
2023-04-26T13:18:10.323Z,14.19
2023-04-26T13:20:39.113Z,14.18
2023-04-26T13:23:07.764Z,14.61
2023-04-26T13:25:36.486Z,15.07
2023-04-26T13:28:05.635Z,15.47
2023-04-26T13:30:34.443Z,15.70
2023-04-26T13:33:04.997Z,15.84
2023-04-26T13:35:33.957Z,15.81
2023-04-26T13:38:03.096Z,15.82
2023-04-26T13:40:31.873Z,16.02
2023-04-26T13:43:00.574Z,16.06
2023-04-26T13:45:29.323Z,15.99
2023-04-26T13:47:58.110Z,16.05
2023-04-26T13:50:28.578Z,16.19
2023-04-26T13:52:57.281Z,16.35
2023-04-26T13:55:26.048Z,16.39
2023-04-26T13:57:54.965Z,16.32
2023-04-26T14:00:24.405Z,16.35
2023-04-26T14:02:53.472Z,16.26
2023-04-26T14:05:22.888Z,16.24
2023-04-26T14:07:54.921Z,15.75
2023-04-26T14:10:24.597Z,15.57
2023-04-26T14:12:53.696Z,15.23
2023-04-26T14:15:22.897Z,15.02
2023-04-26T14:17:51.904Z,14.86
2023-04-26T14:20:20.749Z,14.42
2023-04-26T14:22:50.553Z,14.16
2023-04-26T14:25:21.050Z,13.94
2023-04-26T14:27:53.055Z,13.75
2023-04-26T14:30:22.886Z,13.60
2023-04-26T14:32:51.684Z,13.52
2023-04-26T14:35:20.739Z,13.44
2023-04-26T14:37:49.544Z,13.32
2023-04-26T14:40:18.408Z,13.32
2023-04-26T14:42:49.132Z,13.35
2023-04-26T14:45:17.992Z,13.30
2023-04-26T14:47:46.738Z,13.50
2023-04-26T14:50:15.677Z,13.83
2023-04-26T14:52:44.587Z,14.15
2023-04-26T14:55:18.349Z,14.38
2023-04-26T14:57:48.842Z,14.61
2023-04-26T15:00:18.221Z,14.68
2023-04-26T15:02:47.368Z,14.86
2023-04-26T15:05:16.372Z,14.93
2023-04-26T15:07:45.028Z,14.97
2023-04-26T15:10:14.065Z,14.87
2023-04-26T15:12:42.887Z,14.87
2023-04-26T15:15:13.642Z,14.80
2023-04-26T15:17:42.315Z,14.58
2023-04-26T15:20:11.612Z,14.62
2023-04-26T15:22:40.668Z,14.72
2023-04-26T15:25:11.637Z,14.61
2023-04-26T15:27:41.609Z,14.25
2023-04-26T15:30:11.001Z,14.04
2023-04-26T15:32:41.142Z,13.87
2023-04-26T15:35:15.547Z,13.77
2023-04-26T15:37:45.587Z,13.71
2023-04-26T15:40:14.797Z,13.67
2023-04-26T15:42:44.119Z,13.55
2023-04-26T15:45:13.261Z,13.52
2023-04-26T15:47:43.512Z,13.55
2023-04-26T15:50:13.131Z,13.43
2023-04-26T15:52:42.332Z,13.33
2023-04-26T15:55:11.373Z,13.26
2023-04-26T15:57:43.216Z,13.17
2023-04-26T16:00:14.356Z,13.17
2023-04-26T16:02:45.391Z,13.16
2023-04-26T16:05:14.545Z,13.15
2023-04-26T16:07:43.388Z,13.17
2023-04-26T16:10:12.781Z,13.27
2023-04-26T16:12:43.210Z,13.39
2023-04-26T16:15:12.835Z,13.35
2023-04-26T16:17:41.640Z,13.43
2023-04-26T16:20:13.034Z,13.42
2023-04-26T16:22:44.005Z,13.34
2023-04-26T16:25:13.959Z,13.20
2023-04-26T16:27:42.721Z,13.13
2023-04-26T16:30:12.353Z,13.12
2023-04-26T16:32:40.940Z,13.07
2023-04-26T16:35:11.792Z,13.00
2023-04-26T16:37:42.174Z,12.93
2023-04-26T16:40:11.771Z,12.85
2023-04-26T16:42:43.559Z,12.72
2023-04-26T16:45:16.076Z,12.64
2023-04-26T16:47:45.520Z,12.59
2023-04-26T16:50:16.096Z,12.53
2023-04-26T16:52:44.987Z,12.38
2023-04-26T16:55:13.985Z,12.28
2023-04-26T16:57:43.726Z,12.15
2023-04-26T17:00:13.961Z,12.05
2023-04-26T17:02:42.797Z,11.97
2023-04-26T17:05:12.532Z,11.92
2023-04-26T17:07:42.983Z,11.83
2023-04-26T17:10:12.137Z,11.71
2023-04-26T17:12:41.103Z,11.69
2023-04-26T17:15:10.585Z,11.60
2023-04-26T17:17:39.452Z,11.57
2023-04-26T17:20:10.827Z,11.49
2023-04-26T17:22:40.829Z,11.42
2023-04-26T17:25:11.621Z,11.35
2023-04-26T17:27:40.466Z,11.30
2023-04-26T17:30:10.144Z,11.23
2023-04-26T17:32:38.818Z,11.19
2023-04-26T17:35:08.702Z,11.12
2023-04-26T17:37:37.635Z,11.05
2023-04-26T17:40:08.341Z,11.05
2023-04-26T17:42:38.581Z,11.10
2023-04-26T17:45:09.530Z,10.96
2023-04-26T17:47:40.022Z,10.90
2023-04-26T17:50:10.087Z,10.91
2023-04-26T17:52:39.215Z,10.82
2023-04-26T17:55:10.140Z,10.77
2023-04-26T17:57:41.034Z,10.75
2023-04-26T18:00:10.941Z,10.73
2023-04-26T18:02:39.484Z,10.63
2023-04-26T18:05:10.172Z,10.53
2023-04-26T18:07:39.226Z,10.54
2023-04-26T18:10:09.222Z,10.49
2023-04-26T18:12:40.093Z,10.43
2023-04-26T18:15:09.837Z,10.34
2023-04-26T18:17:38.601Z,10.19
2023-04-26T18:20:09.602Z,10.07
2023-04-26T18:22:39.226Z,9.95
2023-04-26T18:25:08.601Z,9.87
2023-04-26T18:27:37.484Z,9.78
2023-04-26T18:30:09.440Z,9.74
2023-04-26T18:32:38.905Z,9.72
2023-04-26T18:35:08.623Z,9.72
2023-04-26T18:37:39.969Z,9.69
2023-04-26T18:40:09.983Z,9.53
2023-04-26T18:42:39.397Z,9.35
2023-04-26T18:45:12.462Z,9.16
2023-04-26T18:47:41.760Z,9.00
2023-04-26T18:50:10.898Z,8.94
2023-04-26T18:52:40.110Z,8.89
2023-04-26T18:55:09.559Z,8.85
2023-04-26T18:57:39.206Z,8.77
2023-04-26T19:00:11.151Z,8.69
2023-04-26T19:02:41.331Z,8.59
2023-04-26T19:05:12.234Z,8.59
2023-04-26T19:07:41.963Z,8.55
2023-04-26T19:10:11.802Z,8.44
2023-04-26T19:12:41.012Z,8.38
2023-04-26T19:15:12.145Z,8.31
2023-04-26T19:17:41.297Z,8.23
2023-04-26T19:20:13.490Z,8.21
2023-04-26T19:22:44.934Z,8.13
2023-04-26T19:25:20.818Z,8.05
2023-04-26T19:27:49.701Z,7.92
2023-04-26T19:30:20.004Z,7.86
2023-04-26T19:32:48.971Z,7.76
2023-04-26T19:35:17.883Z,7.66
2023-04-26T19:37:46.641Z,7.59
2023-04-26T19:40:15.469Z,7.61
2023-04-26T19:42:44.853Z,7.70
2023-04-26T19:45:13.776Z,7.77
2023-04-26T19:47:44.338Z,7.79
2023-04-26T19:50:13.561Z,7.80
2023-04-26T19:52:42.354Z,7.81
2023-04-26T19:55:11.798Z,7.75
2023-04-26T19:57:41.426Z,7.66
2023-04-26T20:00:11.921Z,7.53
2023-04-26T20:02:40.769Z,7.54
2023-04-26T20:05:11.788Z,7.54
2023-04-26T20:07:41.129Z,7.53
2023-04-26T20:10:11.177Z,7.48
2023-04-26T20:12:40.677Z,7.47
2023-04-26T20:15:12.221Z,7.50
2023-04-26T20:17:41.611Z,7.52
2023-04-26T20:20:14.004Z,7.49
2023-04-26T20:22:43.356Z,7.51
2023-04-26T20:25:12.787Z,7.55
2023-04-26T20:27:41.557Z,7.58
2023-04-26T20:30:11.324Z,7.55
2023-04-26T20:32:40.187Z,7.52
2023-04-26T20:35:09.722Z,7.47
2023-04-26T20:37:40.674Z,7.51
2023-04-26T20:40:10.750Z,7.48
2023-04-26T20:42:39.973Z,7.39
2023-04-26T20:45:09.961Z,7.34
2023-04-26T20:47:39.160Z,7.21
2023-04-26T20:50:09.352Z,7.13
2023-04-26T20:52:38.271Z,7.10
2023-04-26T20:55:09.650Z,7.06
2023-04-26T20:57:38.708Z,7.01
2023-04-26T21:00:10.739Z,6.86
2023-04-26T21:02:40.072Z,6.72
2023-04-26T21:05:09.552Z,6.62
2023-04-26T21:07:38.176Z,6.52
2023-04-26T21:10:10.128Z,6.41
2023-04-26T21:12:38.909Z,6.40
2023-04-26T21:15:09.072Z,6.38
2023-04-26T21:17:38.063Z,6.42
2023-04-26T21:20:07.766Z,6.50
2023-04-26T21:22:36.683Z,6.55
2023-04-26T21:25:05.811Z,6.60
2023-04-26T21:27:36.796Z,6.59
2023-04-26T21:30:06.510Z,6.56
2023-04-26T21:32:35.300Z,6.52
2023-04-26T21:35:04.144Z,6.52
2023-04-26T21:37:32.828Z,6.49
2023-04-26T21:40:01.738Z,6.40
2023-04-26T21:42:30.614Z,6.42
2023-04-26T21:45:00.893Z,6.37
2023-04-26T21:47:29.694Z,6.31
2023-04-26T21:49:58.623Z,6.29
2023-04-26T21:52:27.616Z,6.24
2023-04-26T21:54:56.392Z,6.28
2023-04-26T21:57:25.055Z,6.22
2023-04-26T21:59:54.031Z,6.12
2023-04-26T22:02:24.473Z,6.02
2023-04-26T22:04:55.500Z,5.98
2023-04-26T22:07:24.311Z,5.86
2023-04-26T22:09:53.039Z,5.86
2023-04-26T22:12:22.009Z,5.92
2023-04-26T22:14:50.870Z,5.89
2023-04-26T22:17:19.746Z,5.83
2023-04-26T22:19:50.262Z,5.80
2023-04-26T22:22:19.883Z,5.72
2023-04-26T22:24:48.601Z,5.64
2023-04-26T22:27:17.795Z,5.59
2023-04-26T22:29:46.600Z,5.58
2023-04-26T22:32:15.539Z,5.55
2023-04-26T22:34:44.493Z,5.48
2023-04-26T22:37:21.336Z,5.45
2023-04-26T22:39:53.364Z,5.37
2023-04-26T22:42:22.340Z,5.50
2023-04-26T22:44:51.080Z,5.49
2023-04-26T22:47:23.008Z,5.42
2023-04-26T22:49:52.204Z,5.34
2023-04-26T22:52:31.465Z,5.28
2023-04-26T22:55:01.469Z,5.27
2023-04-26T22:57:30.506Z,5.33
2023-04-26T22:59:59.728Z,5.34
2023-04-26T23:02:28.764Z,5.32
2023-04-26T23:04:57.799Z,5.34
2023-04-26T23:07:28.052Z,5.41
2023-04-26T23:09:57.040Z,5.39
2023-04-26T23:12:25.803Z,5.40
2023-04-26T23:14:58.567Z,5.41
2023-04-26T23:17:27.888Z,5.51
2023-04-26T23:19:56.861Z,5.51
2023-04-26T23:22:25.888Z,5.43
2023-04-26T23:24:56.234Z,5.46
2023-04-26T23:27:24.991Z,5.38
2023-04-26T23:29:53.805Z,5.38
2023-04-26T23:32:22.653Z,5.42
2023-04-26T23:34:51.387Z,5.43
2023-04-26T23:37:20.453Z,5.34
2023-04-26T23:39:49.212Z,5.32
2023-04-26T23:42:19.486Z,5.26
2023-04-26T23:44:48.584Z,5.21
2023-04-26T23:47:17.328Z,5.19
2023-04-26T23:49:46.155Z,5.16
2023-04-26T23:52:14.886Z,5.01
2023-04-26T23:54:43.663Z,5.06
2023-04-26T23:57:12.963Z,5.10
2023-04-26T23:59:43.279Z,5.07
